sensor_id;sensor_type;location;lat;lon;timestamp;pressure;altitude;pressure_sealevel;temperature
27986;BMP280;15453;53.692;10.168;2023-07-09T00:00:54;101743.13;;;26.12
27986;BMP280;15453;53.692;10.168;2023-07-09T00:03:19;101743.13;;;26.12
27986;BMP280;15453;53.692;10.168;2023-07-09T00:05:47;101742.97;;;26.08
27986;BMP280;15453;53.692;10.168;2023-07-09T00:08:30;101738.47;;;26.07
27986;BMP280;15453;53.692;10.168;2023-07-09T00:10:57;101746.75;;;26.04
27986;BMP280;15453;53.692;10.168;2023-07-09T00:13:24;101737.16;;;26.05
27986;BMP280;15453;53.692;10.168;2023-07-09T00:15:50;101742.31;;;26.03
27986;BMP280;15453;53.692;10.168;2023-07-09T00:18:16;101737.00;;;26.01
27986;BMP280;15453;53.692;10.168;2023-07-09T00:20:42;101737.66;;;25.98
27986;BMP280;15453;53.692;10.168;2023-07-09T00:23:09;101743.13;;;25.95
27986;BMP280;15453;53.692;10.168;2023-07-09T00:25:35;101748.19;;;25.93
27986;BMP280;15453;53.692;10.168;2023-07-09T00:28:01;101739.59;;;25.89
27986;BMP280;15453;53.692;10.168;2023-07-09T00:30:26;101737.13;;;25.88
27986;BMP280;15453;53.692;10.168;2023-07-09T00:32:52;101737.13;;;25.88
27986;BMP280;15453;53.692;10.168;2023-07-09T00:35:20;101737.91;;;25.80
27986;BMP280;15453;53.692;10.168;2023-07-09T00:37:47;101757.88;;;25.78
27986;BMP280;15453;53.692;10.168;2023-07-09T00:40:18;101757.88;;;25.78
27986;BMP280;15453;53.692;10.168;2023-07-09T00:42:46;101752.75;;;25.72
27986;BMP280;15453;53.692;10.168;2023-07-09T00:45:26;101752.75;;;25.72
27986;BMP280;15453;53.692;10.168;2023-07-09T00:48:04;101755.22;;;25.65
27986;BMP280;15453;53.692;10.168;2023-07-09T00:50:37;101746.13;;;25.59
27986;BMP280;15453;53.692;10.168;2023-07-09T00:53:19;101744.81;;;25.57
27986;BMP280;15453;53.692;10.168;2023-07-09T00:55:52;101753.03;;;25.53
27986;BMP280;15453;53.692;10.168;2023-07-09T00:58:22;101753.03;;;25.53
27986;BMP280;15453;53.692;10.168;2023-07-09T01:00:55;101743.97;;;25.48
27986;BMP280;15453;53.692;10.168;2023-07-09T01:03:22;101740.16;;;25.44
27986;BMP280;15453;53.692;10.168;2023-07-09T01:05:56;101744.75;;;25.40
27986;BMP280;15453;53.692;10.168;2023-07-09T01:08:23;101744.88;;;25.35
27986;BMP280;15453;53.692;10.168;2023-07-09T01:10:48;101753.63;;;25.33
27986;BMP280;15453;53.692;10.168;2023-07-09T01:13:14;101753.75;;;25.28
27986;BMP280;15453;53.692;10.168;2023-07-09T01:15:40;101741.50;;;25.24
27986;BMP280;15453;53.692;10.168;2023-07-09T01:18:06;101737.69;;;25.20
27986;BMP280;15453;53.692;10.168;2023-07-09T01:20:31;101733.56;;;25.18
27986;BMP280;15453;53.692;10.168;2023-07-09T01:22:57;101738.16;;;25.14
27986;BMP280;15453;53.692;10.168;2023-07-09T01:25:26;101742.56;;;25.06
27986;BMP280;15453;53.692;10.168;2023-07-09T01:27:53;101742.56;;;25.06
27986;BMP280;15453;53.692;10.168;2023-07-09T01:30:28;101726.53;;;24.98
27986;BMP280;15453;53.692;10.168;2023-07-09T01:32:57;101733.13;;;24.94
27986;BMP280;15453;53.692;10.168;2023-07-09T01:35:23;101732.13;;;24.90
27986;BMP280;15453;53.692;10.168;2023-07-09T01:37:49;101732.13;;;24.90
27986;BMP280;15453;53.692;10.168;2023-07-09T01:40:17;101726.63;;;24.85
27986;BMP280;15453;53.692;10.168;2023-07-09T01:42:43;101725.28;;;24.82
27986;BMP280;15453;53.692;10.168;2023-07-09T01:45:09;101726.44;;;24.81
27986;BMP280;15453;53.692;10.168;2023-07-09T01:47:38;101726.44;;;24.81
27986;BMP280;15453;53.692;10.168;2023-07-09T01:50:05;101736.94;;;24.76
27986;BMP280;15453;53.692;10.168;2023-07-09T01:52:32;101728.84;;;24.74
27986;BMP280;15453;53.692;10.168;2023-07-09T01:54:58;101727.84;;;24.70
27986;BMP280;15453;53.692;10.168;2023-07-09T01:57:25;101719.25;;;24.67
27986;BMP280;15453;53.692;10.168;2023-07-09T01:59:59;101722.69;;;24.64
27986;BMP280;15453;53.692;10.168;2023-07-09T02:02:25;101728.63;;;24.62
27986;BMP280;15453;53.692;10.168;2023-07-09T02:04:55;101729.25;;;24.59
27986;BMP280;15453;53.692;10.168;2023-07-09T02:07:22;101729.25;;;24.59
27986;BMP280;15453;53.692;10.168;2023-07-09T02:09:48;101724.59;;;24.55
27986;BMP280;15453;53.692;10.168;2023-07-09T02:12:14;101732.81;;;24.51
27986;BMP280;15453;53.692;10.168;2023-07-09T02:14:41;101732.81;;;24.51
27986;BMP280;15453;53.692;10.168;2023-07-09T02:17:07;101723.69;;;24.46
27986;BMP280;15453;53.692;10.168;2023-07-09T02:19:32;101727.13;;;24.43
27986;BMP280;15453;53.692;10.168;2023-07-09T02:21:58;101729.44;;;24.41
27986;BMP280;15453;53.692;10.168;2023-07-09T02:24:24;101728.09;;;24.38
27986;BMP280;15453;53.692;10.168;2023-07-09T02:27:01;101720.63;;;24.34
27986;BMP280;15453;53.692;10.168;2023-07-09T02:29:27;101730.81;;;24.30
27986;BMP280;15453;53.692;10.168;2023-07-09T02:31:55;101722.72;;;24.28
27986;BMP280;15453;53.692;10.168;2023-07-09T02:34:21;101714.97;;;24.25
27986;BMP280;15453;53.692;10.168;2023-07-09T02:36:54;101734.38;;;24.22
27986;BMP280;15453;53.692;10.168;2023-07-09T02:39:20;101736.66;;;24.20
27986;BMP280;15453;53.692;10.168;2023-07-09T02:41:46;101739.25;;;24.16
27986;BMP280;15453;53.692;10.168;2023-07-09T02:44:11;101731.50;;;24.13
27986;BMP280;15453;53.692;10.168;2023-07-09T02:46:36;101724.03;;;24.09
27986;BMP280;15453;53.692;10.168;2023-07-09T02:49:06;101716.28;;;24.06
27986;BMP280;15453;53.692;10.168;2023-07-09T02:51:32;101722.84;;;24.01
27986;BMP280;15453;53.692;10.168;2023-07-09T02:53:59;101717.03;;;23.98
27986;BMP280;15453;53.692;10.168;2023-07-09T02:56:25;101716.53;;;23.96
27986;BMP280;15453;53.692;10.168;2023-07-09T02:58:51;101725.03;;;23.91
27986;BMP280;15453;53.692;10.168;2023-07-09T03:01:20;101724.47;;;23.89
27986;BMP280;15453;53.692;10.168;2023-07-09T03:03:56;101728.25;;;23.84
27986;BMP280;15453;53.692;10.168;2023-07-09T03:06:25;101736.41;;;23.81
27986;BMP280;15453;53.692;10.168;2023-07-09T03:08:51;101729.47;;;23.78
27986;BMP280;15453;53.692;10.168;2023-07-09T03:11:17;101725.34;;;23.76
27986;BMP280;15453;53.692;10.168;2023-07-09T03:13:42;101732.38;;;23.73
27986;BMP280;15453;53.692;10.168;2023-07-09T03:16:08;101728.56;;;23.69
27986;BMP280;15453;53.692;10.168;2023-07-09T03:18:33;101732.81;;;23.67
27986;BMP280;15453;53.692;10.168;2023-07-09T03:20:59;101725.03;;;23.64
27986;BMP280;15453;53.692;10.168;2023-07-09T03:23:24;101732.94;;;23.62
27986;BMP280;15453;53.692;10.168;2023-07-09T03:25:49;101730.44;;;23.60
27986;BMP280;15453;53.692;10.168;2023-07-09T03:28:15;101735.00;;;23.56
27986;BMP280;15453;53.692;10.168;2023-07-09T03:30:41;101735.31;;;23.55
27986;BMP280;15453;53.692;10.168;2023-07-09T03:33:08;101740.41;;;23.53
27986;BMP280;15453;53.692;10.168;2023-07-09T03:35:34;101744.97;;;23.49
27986;BMP280;15453;53.692;10.168;2023-07-09T03:38:00;101744.97;;;23.49
27986;BMP280;15453;53.692;10.168;2023-07-09T03:40:25;101747.53;;;23.45
27986;BMP280;15453;53.692;10.168;2023-07-09T03:42:51;101745.38;;;23.42
27986;BMP280;15453;53.692;10.168;2023-07-09T03:45:16;101746.50;;;23.41
27986;BMP280;15453;53.692;10.168;2023-07-09T03:47:41;101739.56;;;23.39
27986;BMP280;15453;53.692;10.168;2023-07-09T03:50:08;101742.66;;;23.37
27986;BMP280;15453;53.692;10.168;2023-07-09T03:52:34;101747.44;;;23.37
27986;BMP280;15453;53.692;10.168;2023-07-09T03:55:00;101743.31;;;23.34
27986;BMP280;15453;53.692;10.168;2023-07-09T03:57:27;101747.75;;;23.35
27986;BMP280;15453;53.692;10.168;2023-07-09T03:59:52;101747.75;;;23.35
27986;BMP280;15453;53.692;10.168;2023-07-09T04:02:18;101747.00;;;23.30
27986;BMP280;15453;53.692;10.168;2023-07-09T04:04:43;101744.53;;;23.28
27986;BMP280;15453;53.692;10.168;2023-07-09T04:07:09;101749.31;;;23.28
27986;BMP280;15453;53.692;10.168;2023-07-09T04:09:34;101749.31;;;23.28
27986;BMP280;15453;53.692;10.168;2023-07-09T04:11:59;101757.16;;;23.26
27986;BMP280;15453;53.692;10.168;2023-07-09T04:14:26;101765.53;;;23.26
27986;BMP280;15453;53.692;10.168;2023-07-09T04:16:52;101765.53;;;23.26
27986;BMP280;15453;53.692;10.168;2023-07-09T04:19:17;101746.09;;;23.21
27986;BMP280;15453;53.692;10.168;2023-07-09T04:21:43;101746.34;;;23.19
27986;BMP280;15453;53.692;10.168;2023-07-09T04:24:08;101738.28;;;23.18
27986;BMP280;15453;53.692;10.168;2023-07-09T04:26:33;101741.06;;;23.18
27986;BMP280;15453;53.692;10.168;2023-07-09T04:29:00;101740.75;;;23.19
27986;BMP280;15453;53.692;10.168;2023-07-09T04:31:25;101740.75;;;23.19
27986;BMP280;15453;53.692;10.168;2023-07-09T04:33:50;101736.13;;;23.15
27986;BMP280;15453;53.692;10.168;2023-07-09T04:36:17;101734.44;;;23.14
27986;BMP280;15453;53.692;10.168;2023-07-09T04:38:42;101745.63;;;23.14
27986;BMP280;15453;53.692;10.168;2023-07-09T04:41:08;101738.38;;;23.13
27986;BMP280;15453;53.692;10.168;2023-07-09T04:43:33;101741.47;;;23.11
27986;BMP280;15453;53.692;10.168;2023-07-09T04:45:58;101747.91;;;23.12
27986;BMP280;15453;53.692;10.168;2023-07-09T04:48:24;101746.25;;;23.11
27986;BMP280;15453;53.692;10.168;2023-07-09T04:50:50;101751.84;;;23.11
27986;BMP280;15453;53.692;10.168;2023-07-09T04:53:16;101753.81;;;23.10
27986;BMP280;15453;53.692;10.168;2023-07-09T04:55:41;101750.16;;;23.10
27986;BMP280;15453;53.692;10.168;2023-07-09T04:58:07;101748.22;;;23.10
27986;BMP280;15453;53.692;10.168;2023-07-09T05:00:32;101749.88;;;23.11
27986;BMP280;15453;53.692;10.168;2023-07-09T05:02:58;101753.81;;;23.10
27986;BMP280;15453;53.692;10.168;2023-07-09T05:05:23;101751.31;;;23.09
27986;BMP280;15453;53.692;10.168;2023-07-09T05:07:49;101751.00;;;23.10
27986;BMP280;15453;53.692;10.168;2023-07-09T05:10:14;101756.59;;;23.10
27986;BMP280;15453;53.692;10.168;2023-07-09T05:12:50;101764.69;;;23.12
27986;BMP280;15453;53.692;10.168;2023-07-09T05:15:17;101756.59;;;23.10
27986;BMP280;15453;53.692;10.168;2023-07-09T05:17:43;101751.22;;;23.14
27986;BMP280;15453;53.692;10.168;2023-07-09T05:20:09;101753.19;;;23.13
27986;BMP280;15453;53.692;10.168;2023-07-09T05:22:35;101749.75;;;23.16
27986;BMP280;15453;53.692;10.168;2023-07-09T05:25:00;101745.84;;;23.17
27986;BMP280;15453;53.692;10.168;2023-07-09T05:27:25;101741.63;;;23.20
27986;BMP280;15453;53.692;10.168;2023-07-09T05:29:50;101745.47;;;23.24
27986;BMP280;15453;53.692;10.168;2023-07-09T05:32:15;101744.84;;;23.27
27986;BMP280;15453;53.692;10.168;2023-07-09T05:34:41;101741.13;;;23.31
27986;BMP280;15453;53.692;10.168;2023-07-09T05:37:06;101740.50;;;23.34
27986;BMP280;15453;53.692;10.168;2023-07-09T05:39:32;101736.75;;;23.39
27986;BMP280;15453;53.692;10.168;2023-07-09T05:41:57;101742.28;;;23.44
27986;BMP280;15453;53.692;10.168;2023-07-09T05:44:22;101735.72;;;23.48
27986;BMP280;15453;53.692;10.168;2023-07-09T05:46:47;101736.75;;;23.52
27986;BMP280;15453;53.692;10.168;2023-07-09T05:49:13;101740.28;;;23.58
27986;BMP280;15453;53.692;10.168;2023-07-09T05:51:38;101749.41;;;23.63
27986;BMP280;15453;53.692;10.168;2023-07-09T05:54:03;101751.25;;;23.68
27986;BMP280;15453;53.692;10.168;2023-07-09T05:56:28;101754.47;;;23.75
27986;BMP280;15453;53.692;10.168;2023-07-09T05:58:54;101751.53;;;23.80
27986;BMP280;15453;53.692;10.168;2023-07-09T06:01:20;101752.78;;;23.87
27986;BMP280;15453;53.692;10.168;2023-07-09T06:03:45;101756.00;;;23.94
27986;BMP280;15453;53.692;10.168;2023-07-09T06:06:11;101757.56;;;24.00
27986;BMP280;15453;53.692;10.168;2023-07-09T06:08:37;101743.94;;;24.07
27986;BMP280;15453;53.692;10.168;2023-07-09T06:11:03;101747.16;;;24.14
27986;BMP280;15453;53.692;10.168;2023-07-09T06:13:30;101743.06;;;24.20
27986;BMP280;15453;53.692;10.168;2023-07-09T06:15:59;101743.47;;;24.27
27986;BMP280;15453;53.692;10.168;2023-07-09T06:18:26;101733.81;;;24.33
27986;BMP280;15453;53.692;10.168;2023-07-09T06:20:56;101736.69;;;24.42
27986;BMP280;15453;53.692;10.168;2023-07-09T06:23:22;101735.41;;;24.48
27986;BMP280;15453;53.692;10.168;2023-07-09T06:25:48;101727.38;;;24.55
27986;BMP280;15453;53.692;10.168;2023-07-09T06:28:19;101739.00;;;24.62
27986;BMP280;15453;53.692;10.168;2023-07-09T06:30:45;101731.81;;;24.69
27986;BMP280;15453;53.692;10.168;2023-07-09T06:33:12;101736.63;;;24.77
27986;BMP280;15453;53.692;10.168;2023-07-09T06:35:38;101729.41;;;24.85
27986;BMP280;15453;53.692;10.168;2023-07-09T06:38:05;101733.75;;;24.91
27986;BMP280;15453;53.692;10.168;2023-07-09T06:40:30;101730.50;;;24.97
27986;BMP280;15453;53.692;10.168;2023-07-09T06:42:55;101734.47;;;25.05
27986;BMP280;15453;53.692;10.168;2023-07-09T06:45:21;101728.41;;;25.11
27986;BMP280;15453;53.692;10.168;2023-07-09T06:47:46;101728.47;;;25.20
27986;BMP280;15453;53.692;10.168;2023-07-09T06:50:14;101726.88;;;25.27
27986;BMP280;15453;53.692;10.168;2023-07-09T06:52:39;101737.31;;;25.35
27986;BMP280;15453;53.692;10.168;2023-07-09T06:55:05;101733.19;;;25.41
27986;BMP280;15453;53.692;10.168;2023-07-09T06:57:30;101729.09;;;25.47
27986;BMP280;15453;53.692;10.168;2023-07-09T06:59:55;101739.84;;;25.54
27986;BMP280;15453;53.692;10.168;2023-07-09T07:02:22;101738.19;;;25.61
27986;BMP280;15453;53.692;10.168;2023-07-09T07:04:47;101741.69;;;25.67
27986;BMP280;15453;53.692;10.168;2023-07-09T07:07:12;101741.22;;;25.73
27986;BMP280;15453;53.692;10.168;2023-07-09T07:09:38;101736.59;;;25.77
27986;BMP280;15453;53.692;10.168;2023-07-09T07:12:03;101739.25;;;25.82
27986;BMP280;15453;53.692;10.168;2023-07-09T07:14:29;101733.97;;;25.89
27986;BMP280;15453;53.692;10.168;2023-07-09T07:16:56;101741.09;;;25.95
27986;BMP280;15453;53.692;10.168;2023-07-09T07:19:21;101742.63;;;26.01
27986;BMP280;15453;53.692;10.168;2023-07-09T07:21:47;101742.13;;;26.08
27986;BMP280;15453;53.692;10.168;2023-07-09T07:24:12;101745.63;;;26.13
27986;BMP280;15453;53.692;10.168;2023-07-09T07:26:40;101740.66;;;26.19
27986;BMP280;15453;53.692;10.168;2023-07-09T07:29:05;101739.34;;;26.33
27986;BMP280;15453;53.692;10.168;2023-07-09T07:31:30;101739.34;;;26.33
27986;BMP280;15453;53.692;10.168;2023-07-09T07:33:56;101739.97;;;26.39
27986;BMP280;15453;53.692;10.168;2023-07-09T07:36:21;101736.19;;;26.43
27986;BMP280;15453;53.692;10.168;2023-07-09T07:38:47;101741.31;;;26.50
27986;BMP280;15453;53.692;10.168;2023-07-09T07:41:12;101739.16;;;26.55
27986;BMP280;15453;53.692;10.168;2023-07-09T07:43:37;101743.47;;;26.70
27986;BMP280;15453;53.692;10.168;2023-07-09T07:46:02;101743.47;;;26.70
27986;BMP280;15453;53.692;10.168;2023-07-09T07:48:28;101741.13;;;26.72
27986;BMP280;15453;53.692;10.168;2023-07-09T07:51:00;101731.38;;;26.78
27986;BMP280;15453;53.692;10.168;2023-07-09T07:53:30;101738.47;;;26.84
27986;BMP280;15453;53.692;10.168;2023-07-09T07:55:57;101735.16;;;26.91
27986;BMP280;15453;53.692;10.168;2023-07-09T07:58:22;101738.59;;;26.96
27986;BMP280;15453;53.692;10.168;2023-07-09T08:00:47;101746.50;;;27.11
27986;BMP280;15453;53.692;10.168;2023-07-09T08:03:13;101746.50;;;27.11
27986;BMP280;15453;53.692;10.168;2023-07-09T08:05:38;101744.50;;;27.12
27986;BMP280;15453;53.692;10.168;2023-07-09T08:08:04;101737.06;;;27.16
27986;BMP280;15453;53.692;10.168;2023-07-09T08:10:29;101737.22;;;27.19
27986;BMP280;15453;53.692;10.168;2023-07-09T08:12:54;101732.59;;;27.23
27986;BMP280;15453;53.692;10.168;2023-07-09T08:15:22;101727.25;;;27.30
27986;BMP280;15453;53.692;10.168;2023-07-09T08:17:47;101735.50;;;27.35
27986;BMP280;15453;53.692;10.168;2023-07-09T08:20:12;101727.72;;;27.41
27986;BMP280;15453;53.692;10.168;2023-07-09T08:22:38;101728.69;;;27.45
27986;BMP280;15453;53.692;10.168;2023-07-09T08:25:03;101724.19;;;27.52
27986;BMP280;15453;53.692;10.168;2023-07-09T08:27:29;101727.28;;;27.59
27986;BMP280;15453;53.692;10.168;2023-07-09T08:29:54;101723.94;;;27.66
27986;BMP280;15453;53.692;10.168;2023-07-09T08:32:20;101716.13;;;27.71
27986;BMP280;15453;53.692;10.168;2023-07-09T08:34:45;101725.66;;;27.79
27986;BMP280;15453;53.692;10.168;2023-07-09T08:37:10;101725.16;;;27.85
27986;BMP280;15453;53.692;10.168;2023-07-09T08:39:35;101719.81;;;27.92
27986;BMP280;15453;53.692;10.168;2023-07-09T08:42:09;101719.28;;;27.99
27986;BMP280;15453;53.692;10.168;2023-07-09T08:47:27;101720.19;;;28.11
27986;BMP280;15453;53.692;10.168;2023-07-09T08:49:59;101718.44;;;28.19
27986;BMP280;15453;53.692;10.168;2023-07-09T08:52:36;101718.41;;;28.27
27986;BMP280;15453;53.692;10.168;2023-07-09T08:55:08;101715.81;;;28.34
27986;BMP280;15453;53.692;10.168;2023-07-09T10:16:45;101692.16;;;26.90
27986;BMP280;15453;53.692;10.168;2023-07-09T10:19:27;101686.22;;;27.58
27986;BMP280;15453;53.692;10.168;2023-07-09T10:22:10;101686.22;;;27.58
27986;BMP280;15453;53.692;10.168;2023-07-09T10:24:47;101688.97;;;28.16
27986;BMP280;15453;53.692;10.168;2023-07-09T10:30:43;101671.72;;;29.15
27986;BMP280;15453;53.692;10.168;2023-07-09T10:33:22;101684.44;;;29.57
27986;BMP280;15453;53.692;10.168;2023-07-09T10:36:01;101672.94;;;29.90
27986;BMP280;15453;53.692;10.168;2023-07-09T10:41:31;101664.44;;;30.41
27986;BMP280;15453;53.692;10.168;2023-07-09T10:44:01;101668.78;;;30.66
27986;BMP280;15453;53.692;10.168;2023-07-09T10:46:32;101665.72;;;30.87
27986;BMP280;15453;53.692;10.168;2023-07-09T10:49:00;101670.78;;;31.25
27986;BMP280;15453;53.692;10.168;2023-07-09T10:51:31;101670.78;;;31.25
27986;BMP280;15453;53.692;10.168;2023-07-09T10:54:02;101665.84;;;31.37
27986;BMP280;15453;53.692;10.168;2023-07-09T10:56:33;101667.47;;;31.54
27986;BMP280;15453;53.692;10.168;2023-07-09T10:59:20;101665.78;;;31.68
27986;BMP280;15453;53.692;10.168;2023-07-09T11:01:50;101664.13;;;31.83
27986;BMP280;15453;53.692;10.168;2023-07-09T11:04:30;101660.81;;;31.96
27986;BMP280;15453;53.692;10.168;2023-07-09T11:06:58;101655.44;;;32.10
27986;BMP280;15453;53.692;10.168;2023-07-09T11:09:31;101654.09;;;32.23
27986;BMP280;15453;53.692;10.168;2023-07-09T11:12:02;101649.13;;;32.36
27986;BMP280;15453;53.692;10.168;2023-07-09T11:15:02;101648.56;;;32.49
27986;BMP280;15453;53.692;10.168;2023-07-09T11:17:26;101653.28;;;32.61
27986;BMP280;15453;53.692;10.168;2023-07-09T11:19:55;101649.47;;;32.76
27986;BMP280;15453;53.692;10.168;2023-07-09T11:22:38;101646.50;;;32.88
27986;BMP280;15453;53.692;10.168;2023-07-09T11:25:14;101639.00;;;32.99
27986;BMP280;15453;53.692;10.168;2023-07-09T11:27:50;101649.72;;;33.09
27986;BMP280;15453;53.692;10.168;2023-07-09T11:30:24;101641.75;;;33.18
27986;BMP280;15453;53.692;10.168;2023-07-09T11:32:56;101642.28;;;33.27
27986;BMP280;15453;53.692;10.168;2023-07-09T11:35:25;101638.03;;;33.36
27986;BMP280;15453;53.692;10.168;2023-07-09T11:37:51;101638.56;;;33.45
27986;BMP280;15453;53.692;10.168;2023-07-09T11:40:18;101629.91;;;33.61
27986;BMP280;15453;53.692;10.168;2023-07-09T11:42:55;101629.56;;;33.66
27986;BMP280;15453;53.692;10.168;2023-07-09T11:45:41;101629.56;;;33.66
27986;BMP280;15453;53.692;10.168;2023-07-09T11:48:13;101626.75;;;33.69
27986;BMP280;15453;53.692;10.168;2023-07-09T11:50:47;101618.75;;;33.78
27986;BMP280;15453;53.692;10.168;2023-07-09T11:55:47;101624.06;;;33.80
27986;BMP280;15453;53.692;10.168;2023-07-09T11:58:14;101619.88;;;33.96
27986;BMP280;15453;53.692;10.168;2023-07-09T12:00:43;101621.59;;;34.04
27986;BMP280;15453;53.692;10.168;2023-07-09T12:03:21;101607.81;;;34.10
27986;BMP280;15453;53.692;10.168;2023-07-09T12:05:50;101610.72;;;34.13
27986;BMP280;15453;53.692;10.168;2023-07-09T12:08:17;101610.38;;;34.18
27986;BMP280;15453;53.692;10.168;2023-07-09T12:10:44;101615.34;;;34.25
27986;BMP280;15453;53.692;10.168;2023-07-09T12:13:10;101609.75;;;34.32
27986;BMP280;15453;53.692;10.168;2023-07-09T12:15:39;101613.03;;;34.34
27986;BMP280;15453;53.692;10.168;2023-07-09T12:18:12;101602.47;;;34.34
27986;BMP280;15453;53.692;10.168;2023-07-09T12:20:38;101606.53;;;34.33
27986;BMP280;15453;53.692;10.168;2023-07-09T12:23:30;101610.22;;;34.37
27986;BMP280;15453;53.692;10.168;2023-07-09T12:26:00;101604.97;;;34.39
27986;BMP280;15453;53.692;10.168;2023-07-09T12:28:27;101607.06;;;34.46
27986;BMP280;15453;53.692;10.168;2023-07-09T12:30:53;101596.94;;;34.48
27986;BMP280;15453;53.692;10.168;2023-07-09T12:33:21;101603.88;;;34.51
27986;BMP280;15453;53.692;10.168;2023-07-09T12:35:48;101591.78;;;34.61
27986;BMP280;15453;53.692;10.168;2023-07-09T12:38:19;101591.78;;;34.61
27986;BMP280;15453;53.692;10.168;2023-07-09T12:40:46;101594.63;;;34.61
27986;BMP280;15453;53.692;10.168;2023-07-09T12:43:12;101582.50;;;34.67
27986;BMP280;15453;53.692;10.168;2023-07-09T12:45:38;101591.44;;;34.69
27986;BMP280;15453;53.692;10.168;2023-07-09T12:48:03;101584.59;;;34.74
27986;BMP280;15453;53.692;10.168;2023-07-09T12:50:34;101584.63;;;34.77
27986;BMP280;15453;53.692;10.168;2023-07-09T12:53:14;101582.66;;;34.81
27986;BMP280;15453;53.692;10.168;2023-07-09T12:55:42;101579.81;;;34.81
27986;BMP280;15453;53.692;10.168;2023-07-09T12:58:16;101576.19;;;34.84
27986;BMP280;15453;53.692;10.168;2023-07-09T13:00:47;101574.97;;;34.85
27986;BMP280;15453;53.692;10.168;2023-07-09T13:03:21;101577.41;;;34.83
27986;BMP280;15453;53.692;10.168;2023-07-09T13:05:58;101563.97;;;34.84
27986;BMP280;15453;53.692;10.168;2023-07-09T13:08:25;101571.25;;;34.81
27986;BMP280;15453;53.692;10.168;2023-07-09T13:10:50;101568.03;;;34.83
27986;BMP280;15453;53.692;10.168;2023-07-09T13:13:19;101574.56;;;34.83
27986;BMP280;15453;53.692;10.168;2023-07-09T13:15:52;101577.41;;;34.87
27986;BMP280;15453;53.692;10.168;2023-07-09T13:18:23;101572.97;;;34.89
27986;BMP280;15453;53.692;10.168;2023-07-09T13:20:49;101579.91;;;34.95
27986;BMP280;15453;53.692;10.168;2023-07-09T13:23:24;101572.66;;;35.01
27986;BMP280;15453;53.692;10.168;2023-07-09T13:25:50;101564.13;;;35.05
27986;BMP280;15453;53.692;10.168;2023-07-09T13:28:23;101566.66;;;35.13
27986;BMP280;15453;53.692;10.168;2023-07-09T13:30:52;101573.63;;;35.23
27986;BMP280;15453;53.692;10.168;2023-07-09T13:33:18;101577.38;;;35.30
27986;BMP280;15453;53.692;10.168;2023-07-09T13:35:45;101565.22;;;35.37
27986;BMP280;15453;53.692;10.168;2023-07-09T13:38:18;101571.34;;;35.42
27986;BMP280;15453;53.692;10.168;2023-07-09T13:40:46;101555.88;;;35.47
27986;BMP280;15453;53.692;10.168;2023-07-09T13:43:18;101566.16;;;35.66
27986;BMP280;15453;53.692;10.168;2023-07-09T13:45:45;101566.16;;;35.66
27986;BMP280;15453;53.692;10.168;2023-07-09T13:48:14;101553.97;;;35.69
27986;BMP280;15453;53.692;10.168;2023-07-09T13:50:41;101563.00;;;35.81
27986;BMP280;15453;53.692;10.168;2023-07-09T13:53:12;101568.75;;;35.85
27986;BMP280;15453;53.692;10.168;2023-07-09T13:55:38;101568.75;;;35.85
27986;BMP280;15453;53.692;10.168;2023-07-09T13:58:04;101566.34;;;35.90
27986;BMP280;15453;53.692;10.168;2023-07-09T14:00:29;101566.34;;;35.90
27986;BMP280;15453;53.692;10.168;2023-07-09T14:02:54;101569.19;;;35.90
27986;BMP280;15453;53.692;10.168;2023-07-09T14:05:20;101573.69;;;36.02
27986;BMP280;15453;53.692;10.168;2023-07-09T14:07:46;101573.69;;;36.02
27986;BMP280;15453;53.692;10.168;2023-07-09T14:10:13;101556.59;;;36.02
27986;BMP280;15453;53.692;10.168;2023-07-09T14:12:45;101558.22;;;36.06
27986;BMP280;15453;53.692;10.168;2023-07-09T14:15:17;101559.03;;;36.10
27986;BMP280;15453;53.692;10.168;2023-07-09T14:17:43;101559.47;;;36.12
27986;BMP280;15453;53.692;10.168;2023-07-09T14:20:12;101554.19;;;36.18
27986;BMP280;15453;53.692;10.168;2023-07-09T14:22:39;101548.09;;;36.19
27986;BMP280;15453;53.692;10.168;2023-07-09T14:25:05;101543.25;;;36.23
27986;BMP280;15453;53.692;10.168;2023-07-09T14:27:31;101536.69;;;36.26
27986;BMP280;15453;53.692;10.168;2023-07-09T14:29:56;101537.94;;;36.29
27986;BMP280;15453;53.692;10.168;2023-07-09T14:32:35;101531.84;;;36.34
27986;BMP280;15453;53.692;10.168;2023-07-09T14:35:01;101526.53;;;36.39
27986;BMP280;15453;53.692;10.168;2023-07-09T14:37:27;101514.31;;;36.53
27986;BMP280;15453;53.692;10.168;2023-07-09T14:39:53;101514.31;;;36.53
27986;BMP280;15453;53.692;10.168;2023-07-09T14:42:18;101511.47;;;36.56
27986;BMP280;15453;53.692;10.168;2023-07-09T14:44:44;101512.28;;;36.67
27986;BMP280;15453;53.692;10.168;2023-07-09T14:47:15;101512.28;;;36.67
27986;BMP280;15453;53.692;10.168;2023-07-09T14:49:41;101507.44;;;36.68
27986;BMP280;15453;53.692;10.168;2023-07-09T14:52:14;101504.56;;;36.71
27986;BMP280;15453;53.692;10.168;2023-07-09T14:54:43;101511.91;;;36.76
27986;BMP280;15453;53.692;10.168;2023-07-09T14:57:18;101514.75;;;36.79
27986;BMP280;15453;53.692;10.168;2023-07-09T14:59:44;101509.44;;;36.81
27986;BMP280;15453;53.692;10.168;2023-07-09T15:04:46;101504.13;;;36.87
27986;BMP280;15453;53.692;10.168;2023-07-09T15:07:12;101493.94;;;36.89
27986;BMP280;15453;53.692;10.168;2023-07-09T15:09:39;101495.56;;;36.94
27986;BMP280;15453;53.692;10.168;2023-07-09T15:12:04;101492.28;;;36.99
27986;BMP280;15453;53.692;10.168;2023-07-09T15:14:30;101492.69;;;37.04
27986;BMP280;15453;53.692;10.168;2023-07-09T15:16:55;101490.25;;;37.10
27986;BMP280;15453;53.692;10.168;2023-07-09T15:19:24;101480.41;;;37.32
27986;BMP280;15453;53.692;10.168;2023-07-09T15:21:50;101480.41;;;37.32